Tetouan, Morocco
Current Conditions -  °F | °C
As of 10:00 AM on Saturday 20 Dec 2014 (Local Time) from GMTN Reporting Station
Haze Haze  
Wind Chill: 50°   Ceiling: Unl
Heat Index: 50°   Visibility: 2.5mi
Dew Point: 48°   Wind: 12mph
Humidity: 94%   Direction: 210°SSW
Pressure: 30.42"   Gusts: NA
Location:  35.58°N, 5.37°W
Report Text: GMTN 200900Z 21010KT 4000 BR NSC 10/09 Q1030 BECMG 5000 NSW
Loading
Personal Weather Stations






























Interactive Weather Map New forecast layout! Learn more

10-Day Weather Forecast

Advertisements
Track Severe Weather on mobile